WBSB/BWN METAR and TAF weather

Enter ICAO airport designator
Station Type Date Time Source
WBSB METAR 2019/07/20 20:30 UTC NOAA

WBSB 202030Z 20003KT 9000 FEW015 SCT140 BKN300 27/26 Q1008 NOSIG


Station Type Date Time Source
WBSB Decoded METAR 2019/07/20 20:30 UTC NOAA

Brunei Airport, Brunei (WBSB) 04-56N 114-56E 15M
Jul 20, 2019 - 04:30 PM EDT / 2019.07.20 2030 UTC
Wind: from the SSW (200 degrees) at 3 MPH (3 KT):0
Visibility: 5 mile(s):0
Sky conditions: mostly cloudy
Temperature: 80 F (27 C)
Dew Point: 78 F (26 C)
Relative Humidity: 94%
Pressure (altimeter): 29.77 in. Hg (1008 hPa)
ob: WBSB 202030Z 20003KT 9000 FEW015 SCT140 BKN300 27/26 Q1008 NOSIG
cycle: 20

Station Type Date Time Source
WBSB TAF 2019/07/20 18:11 UTC NOAA

TAF WBSB 201700Z 2018/2200 05005KT 8000 FEW015 FEW016CB
TEMPO 2020/2022 7000 SHRA
BECMG 2102/2104 02010KT SCT016 FEW017CB

Example: see airport list